地図

経路データ

SID SEASON NUMBER BASIN SUBBASIN NAME ISO_TIME NATURE LAT LON WMO_WIND WMO_PRES WMO_AGENCY TRACK_TYPE DIST2LAND LANDFALL IFLAG USA_AGENCY USA_ATCF_ID USA_LAT USA_LON USA_RECORD USA_STATUS USA_WIND USA_PRES USA_SSHS USA_R34_NE USA_R34_SE USA_R34_SW USA_R34_NW USA_R50_NE USA_R50_SE USA_R50_SW USA_R50_NW USA_R64_NE USA_R64_SE USA_R64_SW USA_R64_NW USA_POCI USA_ROCI USA_RMW USA_EYE TOKYO_LAT TOKYO_LON TOKYO_GRADE TOKYO_WIND TOKYO_PRES TOKYO_R50_DIR TOKYO_R50_LONG TOKYO_R50_SHORT TOKYO_R30_DIR TOKYO_R30_LONG TOKYO_R30_SHORT TOKYO_LAND CMA_LAT CMA_LON CMA_CAT CMA_WIND CMA_PRES HKO_LAT HKO_LON HKO_CAT HKO_WIND HKO_PRES NEWDELHI_LAT NEWDELHI_LON NEWDELHI_GRADE NEWDELHI_WIND NEWDELHI_PRES NEWDELHI_CI NEWDELHI_DP NEWDELHI_POCI REUNION_LAT REUNION_LON REUNION_TYPE REUNION_WIND REUNION_PRES REUNION_TNUM REUNION_CI REUNION_RMW REUNION_R34_NE REUNION_R34_SE REUNION_R34_SW REUNION_R34_NW REUNION_R50_NE REUNION_R50_SE REUNION_R50_SW REUNION_R50_NW REUNION_R64_NE REUNION_R64_SE REUNION_R64_SW REUNION_R64_NW BOM_LAT BOM_LON BOM_TYPE BOM_WIND BOM_PRES BOM_TNUM BOM_CI BOM_RMW BOM_R34_NE BOM_R34_SE BOM_R34_SW BOM_R34_NW BOM_R50_NE BOM_R50_SE BOM_R50_SW BOM_R50_NW BOM_R64_NE BOM_R64_SE BOM_R64_SW BOM_R64_NW BOM_ROCI BOM_POCI BOM_EYE BOM_POS_METHOD BOM_PRES_METHOD NADI_LAT NADI_LON NADI_CAT NADI_WIND NADI_PRES WELLINGTON_LAT WELLINGTON_LON WELLINGTON_WIND WELLINGTON_PRES DS824_LAT DS824_LON DS824_STAGE DS824_WIND DS824_PRES TD9636_LAT TD9636_LON TD9636_STAGE TD9636_WIND TD9636_PRES TD9635_LAT TD9635_LON TD9635_WIND TD9635_PRES TD9635_ROCI NEUMANN_LAT NEUMANN_LON NEUMANN_CLASS NEUMANN_WIND NEUMANN_PRES MLC_LAT MLC_LON MLC_CLASS MLC_WIND MLC_PRES USA_GUST BOM_GUST BOM_GUST_PER REUNION_GUST REUNION_GUST_PER USA_SEAHGT USA_SEARAD_NE USA_SEARAD_SE USA_SEARAD_SW USA_SEARAD_NW STORM_SPEED STORM_DIR
1992270N11325 1992 98 NA NA NOT_NAMED 1992-09-25 12:00:00 TS 11.0000 -34.7000 25 1012 hurdat_atl main 1656 1631 O_____________ hurdat_atl AL081992 11.0000 -34.7000 TD 25 1012 -1 15 274
1992270N11325 1992 98 NA NA NOT_NAMED 1992-09-25 15:00:00 TS 11.0554 -35.4499 main 1642 1618 P_____________ AL081992 11.0554 -35.4499 TD 27 1011 -1 15 274
1992270N11325 1992 98 NA NA NOT_NAMED 1992-09-25 18:00:00 TS 11.1000 -36.2000 30 1011 hurdat_atl main 1618 1601 O_____________ hurdat_atl AL081992 11.1000 -36.2000 TD 30 1011 -1 15 273
1992270N11325 1992 98 NA NA NOT_NAMED 1992-09-25 21:00:00 TS 11.1348 -36.9501 main 1599 1594 P_____________ AL081992 11.1348 -36.9501 TD 30 1011 -1 15 274
1992270N11325 1992 98 NA NA NOT_NAMED 1992-09-26 00:00:00 TS 11.2000 -37.7000 30 1011 hurdat_atl main 1596 1592 O_____________ hurdat_atl AL081992 11.2000 -37.7000 TD 30 1011 -1 15 278
1992270N11325 1992 98 NA NA NOT_NAMED 1992-09-26 03:00:00 TS 11.3348 -38.4500 main 1598 1557 P_____________ AL081992 11.3348 -38.4500 TD 27 1011 -1 15 282
1992270N11325 1992 98 NA NA NOT_NAMED 1992-09-26 06:00:00 TS 11.5000 -39.2000 25 1012 hurdat_atl main 1557 1498 O_____________ hurdat_atl AL081992 11.5000 -39.2000 TD 25 1012 -1 15 281
1992270N11325 1992 98 NA NA NOT_NAMED 1992-09-26 09:00:00 TS 11.6350 -39.9726 main 1489 1438 P_____________ AL081992 11.6350 -39.9726 TD 25 1012 -1 15 282
1992270N11325 1992 98 NA NA NOT_NAMED 1992-09-26 12:00:00 TS 11.8000 -40.7000 25 1013 hurdat_atl main 1438 1398 O_____________ hurdat_atl AL081992 11.8000 -40.7000 TD 25 1013 -1 14 287
1992270N11325 1992 98 NA NA NOT_NAMED 1992-09-26 15:00:00 TS 12.0347 -41.3225 main 1398 1368 P_____________ AL081992 12.0347 -41.3225 TD 25 1012 -1 13 293
1992270N11325 1992 98 NA NA NOT_NAMED 1992-09-26 18:00:00 TS 12.3000 -41.9000 25 1012 hurdat_atl main 1368 1334 O_____________ hurdat_atl AL081992 12.3000 -41.9000 TD 25 1012 -1 13 294
1992270N11325 1992 98 NA NA NOT_NAMED 1992-09-26 21:00:00 TS 12.5424 -42.5076 main 1334 1310 P_____________ AL081992 12.5424 -42.5076 TD 27 1011 -1 13 293
1992270N11325 1992 98 NA NA NOT_NAMED 1992-09-27 00:00:00 TS 12.8000 -43.1000 30 1011 hurdat_atl main 1311 1290 O_____________ hurdat_atl AL081992 12.8000 -43.1000 TD 30 1011 -1 13 296
1992270N11325 1992 98 NA NA NOT_NAMED 1992-09-27 03:00:00 TS 13.0849 -43.6726 main 1292 1281 P_____________ AL081992 13.0849 -43.6726 TD 30 1010 -1 12 299
1992270N11325 1992 98 NA NA NOT_NAMED 1992-09-27 06:00:00 TS 13.4000 -44.2000 30 1010 hurdat_atl main 1283 1276 O_____________ hurdat_atl AL081992 13.4000 -44.2000 TD 30 1010 -1 12 304
1992270N11325 1992 98 NA NA NOT_NAMED 1992-09-27 09:00:00 TS 13.7499 -44.6800 main 1278 1278 P_____________ AL081992 13.7499 -44.6800 TD 30 1009 -1 11 309
1992270N11325 1992 98 NA NA NOT_NAMED 1992-09-27 12:00:00 TS 14.1000 -45.1000 30 1009 hurdat_atl main 1291 1286 O_____________ hurdat_atl AL081992 14.1000 -45.1000 TD 30 1009 -1 10 310
1992270N11325 1992 98 NA NA NOT_NAMED 1992-09-27 15:00:00 TS 14.3999 -45.4727 main 1290 1290 P_____________ AL081992 14.3999 -45.4727 TD 30 1009 -1 9 311
1992270N11325 1992 98 NA NA NOT_NAMED 1992-09-27 18:00:00 TS 14.7000 -45.8000 30 1010 hurdat_atl main 1298 1298 O_____________ hurdat_atl AL081992 14.7000 -45.8000 TD 30 1010 -1 9 316
1992270N11325 1992 98 NA NA NOT_NAMED 1992-09-27 21:00:00 TS 15.0350 -46.1151 main 1307 1307 P_____________ AL081992 15.0350 -46.1151 TD 30 1010 -1 9 320
1992270N11325 1992 98 NA NA NOT_NAMED 1992-09-28 00:00:00 TS 15.4000 -46.4000 30 1011 hurdat_atl main 1328 1328 O_____________ hurdat_atl AL081992 15.4000 -46.4000 TD 30 1011 -1 9 323
1992270N11325 1992 98 NA NA NOT_NAMED 1992-09-28 03:00:00 TS 15.7775 -46.6949 main 1350 1350 P_____________ AL081992 15.7775 -46.6949 TD 27 1011 -1 9 329
1992270N11325 1992 98 NA NA NOT_NAMED 1992-09-28 06:00:00 TS 16.2000 -46.9000 25 1012 hurdat_atl main 1380 1380 O_____________ hurdat_atl AL081992 16.2000 -46.9000 TD 25 1012 -1 10 344
1992270N11325 1992 98 NA NA NOT_NAMED 1992-09-28 09:00:00 TS 16.6999 -46.9675 main 1424 1424 P_____________ AL081992 16.6999 -46.9675 TD 25 1012 -1 10 359
1992270N11325 1992 98 NA NA NOT_NAMED 1992-09-28 12:00:00 TS 17.2000 -46.9000 25 1013 hurdat_atl main 1479 1479 O_____________ hurdat_atl AL081992 17.2000 -46.9000 TD 25 1013 -1 10 14
1992270N11325 1992 98 NA NA NOT_NAMED 1992-09-28 15:00:00 TS 17.6301 -46.7227 main 1529 1529 P_____________ AL081992 17.6301 -46.7227 TD 25 1012 -1 9 26
1992270N11325 1992 98 NA NA NOT_NAMED 1992-09-28 18:00:00 TS 18.0000 -46.5000 25 1012 hurdat_atl main 1578 1578 O_____________ hurdat_atl AL081992 18.0000 -46.5000 TD 25 1012 -1 8 28
1992270N11325 1992 98 NA NA NOT_NAMED 1992-09-28 21:00:00 TS 18.3150 -46.3424 main 1617 1617 P_____________ AL081992 18.3150 -46.3424 TD 27 1011 -1 7 25
1992270N11325 1992 98 NA NA NOT_NAMED 1992-09-29 00:00:00 TS 18.6000 -46.2000 30 1011 hurdat_atl main 1652 1652 O_____________ hurdat_atl AL081992 18.6000 -46.2000 TD 30 1011 -1 7 25
1992270N11325 1992 98 NA NA NOT_NAMED 1992-09-29 03:00:00 TS 18.9000 -46.0499 main 1692 1692 P_____________ AL081992 18.9000 -46.0499 TD 30 1010 -1 7 25
1992270N11325 1992 98 NA NA NOT_NAMED 1992-09-29 06:00:00 TS 19.2000 -45.9000 30 1010 hurdat_atl main 1726 1726 O_____________ hurdat_atl AL081992 19.2000 -45.9000 TD 30 1010 -1 7 26
1992270N11325 1992 98 NA NA NOT_NAMED 1992-09-29 09:00:00 TS 19.4925 -45.7425 main 1766 1766 P_____________ AL081992 19.4925 -45.7425 TD 30 1009 -1 7 25
1992270N11325 1992 98 NA NA NOT_NAMED 1992-09-29 12:00:00 TS 19.8000 -45.6000 30 1009 hurdat_atl main 1800 1800 O_____________ hurdat_atl AL081992 19.8000 -45.6000 TD 30 1009 -1 7 21
1992270N11325 1992 98 NA NA NOT_NAMED 1992-09-29 15:00:00 TS 20.1200 -45.4850 main 1835 1835 P_____________ AL081992 20.1200 -45.4850 TD 30 1009 -1 7 15
1992270N11325 1992 98 NA NA NOT_NAMED 1992-09-29 18:00:00 TS 20.5000 -45.4000 30 1010 hurdat_atl main 1880 1880 O_____________ hurdat_atl AL081992 20.5000 -45.4000 TD 30 1010 -1 9 9
1992270N11325 1992 98 NA NA NOT_NAMED 1992-09-29 21:00:00 TS 20.9775 -45.3424 main 1935 1935 P_____________ AL081992 20.9775 -45.3424 TD 30 1009 -1 10 6
1992270N11325 1992 98 NA NA NOT_NAMED 1992-09-30 00:00:00 TS 21.5000 -45.3000 30 1009 hurdat_atl main 1985 1985 O_____________ hurdat_atl AL081992 21.5000 -45.3000 TD 30 1009 -1 10 4
1992270N11325 1992 98 NA NA NOT_NAMED 1992-09-30 03:00:00 TS 22.0000 -45.2722 main 2036 2036 P_____________ AL081992 22.0000 -45.2722 TD 30 1008 -1 10 5
1992270N11325 1992 98 NA NA NOT_NAMED 1992-09-30 06:00:00 TS 22.5000 -45.2000 30 1008 hurdat_atl main 2091 2091 O_____________ hurdat_atl AL081992 22.5000 -45.2000 TD 30 1008 -1 10 13
1992270N11325 1992 98 NA NA NOT_NAMED 1992-09-30 09:00:00 TS 23.0075 -45.0226 main 2150 2150 P_____________ AL081992 23.0075 -45.0226 TD 30 1008 -1 11 20
1992270N11325 1992 98 NA NA NOT_NAMED 1992-09-30 12:00:00 TS 23.5000 -44.8000 30 1009 hurdat_atl main 2210 2210 O_____________ hurdat_atl AL081992 23.5000 -44.8000 TD 30 1009 -1 10 22
1992270N11325 1992 98 NA NA NOT_NAMED 1992-09-30 15:00:00 TS 23.9499 -44.6072 main 2259 2259 P_____________ AL081992 23.9499 -44.6072 TD 30 1009 -1 10 22
1992270N11325 1992 98 NA NA NOT_NAMED 1992-09-30 18:00:00 TS 24.4000 -44.4000 30 1010 hurdat_atl main 2291 2291 O_____________ hurdat_atl AL081992 24.4000 -44.4000 TD 30 1010 -1 10 23
1992270N11325 1992 98 NA NA NOT_NAMED 1992-09-30 21:00:00 TS 24.8924 -44.1722 main 2324 2324 P_____________ AL081992 24.8924 -44.1722 TD 30 1010 -1 11 24
1992270N11325 1992 98 NA NA NOT_NAMED 1992-10-01 00:00:00 TS 25.4000 -43.9000 30 1011 hurdat_atl main 2367 2367 O_____________ hurdat_atl AL081992 25.4000 -43.9000 TD 30 1011 -1 11 28
1992270N11325 1992 98 NA NA NOT_NAMED 1992-10-01 03:00:00 TS 25.8849 -43.5795 main 2411 2411 P_____________ AL081992 25.8849 -43.5795 TD 27 1011 -1 12 32
1992270N11325 1992 98 NA NA NOT_NAMED 1992-10-01 06:00:00 TS 26.4000 -43.2000 25 1012 hurdat_atl main 2415 2376 O_____________ hurdat_atl AL081992 26.4000 -43.2000 TD 25 1012 -1 13 34
1992270N11325 1992 98 NA NA NOT_NAMED 1992-10-01 09:00:00 TS 26.9803 -42.7662 main 2365 2320 P_____________ AL081992 26.9803 -42.7662 TD 22 1013 -1 14 34
1992270N11325 1992 98 NA NA NOT_NAMED 1992-10-01 12:00:00 TS 27.6000 -42.3000 20 1015 hurdat_atl main 2320 O_____________ hurdat_atl AL081992 27.6000 -42.3000 TD 20 1015 -1 15 34

IBTrACS Databaseについて

本データベースは、米国NOAAが公開する1842年以降の世界の熱帯低気圧のベストトラックデータアーカイブInternational Best Track Archive for Climate Stewardship (IBTrACS)を、ウェブで閲覧しやすい形式に変換したものです。

最終更新日:2021-11-26